Time;durP1;ratioP1;P1;durP2;ratioP2;P2;SDS_P1;SDS_P2;PMS_P1;PMS_P2;Temp;Humidity;BMP_temperature;BMP_pressure;BME280_temperature;BME280_humidity;BME280_pressure;Samples;Min_cycle;Max_cycle;Signal;HPM_P1;HPM_P2
2021/12/19 00:01:34;;;;;;;0.30;0.10;;;0.40;99.90;;;;;;5065323;28;20212;-87
2021/12/19 00:04:16;;;;;;;1.30;0.50;;;0.40;99.90;;;;;;5063034;28;20192;-88
2021/12/19 00:09:28;;;;;;;0.30;0.10;;;0.40;99.90;;;;;;5060612;28;20200;-88
2021/12/19 00:11:56;;;;;;;0.30;0.10;;;0.40;99.90;;;;;;5061017;28;20282;-88
2021/12/19 00:14:24;;;;;;;0.30;0.15;;;0.40;99.90;;;;;;5062194;28;20219;-87
2021/12/19 00:16:52;;;;;;;0.30;0.10;;;0.50;99.90;;;;;;5065843;28;20215;-87
2021/12/19 00:19:19;;;;;;;1.05;1.05;;;0.40;99.90;;;;;;5074704;28;20199;-85
2021/12/19 00:21:46;;;;;;;9.82;2.10;;;0.50;99.90;;;;;;5085646;28;20195;-85
2021/12/19 00:24:13;;;;;;;0.30;0.10;;;0.50;99.90;;;;;;5074616;28;20223;-86
2021/12/19 00:26:41;;;;;;;0.85;0.85;;;0.50;99.90;;;;;;5068856;28;20586;-85
2021/12/19 00:29:08;;;;;;;0.30;0.15;;;0.50;99.90;;;;;;5065099;28;20203;-86
2021/12/19 00:31:37;;;;;;;0.30;0.10;;;0.60;99.90;;;;;;5064213;28;20201;-87
2021/12/19 00:34:04;;;;;;;0.30;0.10;;;0.50;99.90;;;;;;5062493;28;20580;-87
2021/12/19 00:36:31;;;;;;;0.30;0.20;;;0.50;99.90;;;;;;5047986;28;20199;-86
2021/12/19 00:38:59;;;;;;;0.30;0.10;;;0.50;99.90;;;;;;5050701;28;20289;-87
2021/12/19 00:41:26;;;;;;;0.30;0.10;;;0.60;99.90;;;;;;5049830;28;20201;-87
2021/12/19 00:43:55;;;;;;;0.30;0.10;;;0.60;99.90;;;;;;5060769;28;20208;-86
2021/12/19 00:46:26;;;;;;;0.30;0.10;;;0.50;99.90;;;;;;5066058;28;20191;-86
2021/12/19 00:48:56;;;;;;;0.30;0.10;;;0.50;99.90;;;;;;5066219;28;20217;-87
2021/12/19 00:51:24;;;;;;;0.30;0.10;;;0.50;99.90;;;;;;5063227;28;20540;-86
2021/12/19 00:53:53;;;;;;;0.30;0.10;;;0.50;99.90;;;;;;5070362;28;20257;-86
2021/12/19 00:56:20;;;;;;;0.77;0.40;;;0.50;99.90;;;;;;5072700;28;20258;-86
2021/12/19 00:58:47;;;;;;;0.30;0.10;;;0.50;99.90;;;;;;5064166;28;20239;-86
2021/12/19 01:01:16;;;;;;;0.30;0.10;;;0.50;99.90;;;;;;5058860;28;20201;-86
2021/12/19 01:03:44;;;;;;;0.30;0.10;;;0.50;99.90;;;;;;5059244;28;20608;-87
2021/12/19 01:06:16;;;;;;;0.30;0.10;;;0.50;99.90;;;;;;5071099;28;20217;-86
2021/12/19 01:08:43;;;;;;;0.30;0.10;;;0.40;99.90;;;;;;5072068;28;20295;-86
2021/12/19 01:11:11;;;;;;;0.30;0.10;;;0.40;99.90;;;;;;5072249;28;20208;-86
2021/12/19 01:13:38;;;;;;;0.30;0.10;;;0.40;99.90;;;;;;5063342;28;20266;-89
2021/12/19 01:16:05;;;;;;;0.30;0.17;;;0.40;99.90;;;;;;5072988;28;20227;-86
2021/12/19 01:18:32;;;;;;;0.30;0.10;;;0.40;99.90;;;;;;5094575;28;20241;-86
2021/12/19 01:20:59;;;;;;;0.40;0.40;;;0.40;99.90;;;;;;5073910;28;20227;-87
2021/12/19 01:23:28;;;;;;;0.73;0.73;;;0.40;99.90;;;;;;5069446;28;20197;-85
2021/12/19 01:25:55;;;;;;;1.38;0.22;;;0.40;99.90;;;;;;5072489;28;20204;-86
2021/12/19 01:28:22;;;;;;;0.30;0.10;;;0.40;99.90;;;;;;5071345;28;20196;-87
2021/12/19 01:30:49;;;;;;;0.30;0.10;;;0.40;99.90;;;;;;5061751;28;20812;-88
2021/12/19 01:33:16;;;;;;;2.03;1.95;;;0.40;99.90;;;;;;5060427;28;20196;-85
2021/12/19 01:35:43;;;;;;;0.30;0.10;;;0.30;99.90;;;;;;5070565;28;20287;-86
2021/12/19 01:38:10;;;;;;;0.30;0.10;;;0.30;99.90;;;;;;5067011;28;20683;-87
2021/12/19 01:40:39;;;;;;;1.15;0.90;;;0.40;99.90;;;;;;5066135;28;20204;-87
2021/12/19 01:43:06;;;;;;;0.30;0.10;;;0.40;99.90;;;;;;5063337;28;20641;-88
2021/12/19 01:45:36;;;;;;;0.30;0.10;;;0.40;99.90;;;;;;5059390;28;20643;-87
2021/12/19 01:48:07;;;;;;;0.30;0.10;;;0.40;99.90;;;;;;5069501;28;20195;-86
2021/12/19 01:50:35;;;;;;;0.30;0.20;;;0.40;99.90;;;;;;5070646;28;20539;-87
2021/12/19 01:53:04;;;;;;;0.30;0.10;;;0.40;99.90;;;;;;5068383;28;20206;-88
2021/12/19 01:55:31;;;;;;;0.30;0.10;;;0.40;99.90;;;;;;5070906;28;20275;-87
2021/12/19 01:58:00;;;;;;;0.30;0.20;;;0.30;99.90;;;;;;5064681;28;20215;-88
2021/12/19 02:00:29;;;;;;;0.30;0.30;;;0.30;99.90;;;;;;5057293;28;20206;-88
2021/12/19 02:02:57;;;;;;;0.30;0.10;;;0.30;99.90;;;;;;5065651;28;20877;-85
2021/12/19 02:05:25;;;;;;;0.30;0.10;;;0.20;99.90;;;;;;5065356;28;20270;-88
2021/12/19 02:07:53;;;;;;;0.30;0.10;;;0.20;99.90;;;;;;5070674;28;20250;-87
2021/12/19 02:10:21;;;;;;;0.30;0.10;;;0.20;99.90;;;;;;5070383;28;20206;-86
2021/12/19 02:12:51;;;;;;;0.30;0.10;;;0.20;99.90;;;;;;5066760;28;20230;-86
2021/12/19 02:15:21;;;;;;;0.40;0.35;;;0.20;99.90;;;;;;5072630;28;20210;-88
2021/12/19 02:17:51;;;;;;;0.40;0.30;;;0.20;99.90;;;;;;5072361;28;20230;-86
2021/12/19 02:20:22;;;;;;;0.30;0.10;;;0.20;99.90;;;;;;5067658;28;20606;-86
2021/12/19 02:22:49;;;;;;;0.30;0.10;;;0.20;99.90;;;;;;5063046;28;20681;-87
2021/12/19 02:25:17;;;;;;;0.30;0.10;;;0.20;99.90;;;;;;5065208;28;20206;-88
2021/12/19 02:27:44;;;;;;;0.30;0.10;;;0.20;99.90;;;;;;5071212;28;20202;-88
2021/12/19 02:30:14;;;;;;;0.30;0.20;;;0.30;99.90;;;;;;5058982;28;20195;-87
2021/12/19 02:32:41;;;;;;;0.30;0.20;;;0.30;99.90;;;;;;5064160;28;20242;-86
2021/12/19 02:35:13;;;;;;;0.30;0.10;;;0.30;99.90;;;;;;5065892;28;20279;-86
2021/12/19 02:38:12;;;;;;;0.30;0.20;;;0.30;99.90;;;;;;5066699;28;20237;-87
2021/12/19 02:48:53;;;;;;;1.38;1.38;;;0.30;99.90;;;;;;5064906;28;20208;-88
2021/12/19 02:51:20;;;;;;;0.30;0.20;;;0.30;99.90;;;;;;5070361;28;20200;-85
2021/12/19 02:53:48;;;;;;;1.10;1.10;;;0.40;99.90;;;;;;5069900;28;20696;-86
2021/12/19 02:56:15;;;;;;;0.30;0.10;;;0.40;99.90;;;;;;5067041;28;20384;-86
2021/12/19 02:58:44;;;;;;;0.52;0.40;;;0.40;99.90;;;;;;5067778;28;20218;-86
2021/12/19 03:01:14;;;;;;;0.30;0.10;;;0.40;99.90;;;;;;5069757;28;20556;-86
2021/12/19 03:03:41;;;;;;;0.30;0.10;;;0.40;99.90;;;;;;5069268;28;20193;-87
2021/12/19 03:06:08;;;;;;;0.30;0.10;;;0.40;99.90;;;;;;5069926;28;20257;-85
2021/12/19 03:08:41;;;;;;;0.30;0.10;;;0.40;99.90;;;;;;5069535;28;20198;-88
2021/12/19 03:19:29;;;;;;;0.30;0.10;;;0.40;99.90;;;;;;5070252;28;20274;-87
2021/12/19 03:21:56;;;;;;;0.30;0.10;;;0.40;99.90;;;;;;5067268;28;20204;-86
2021/12/19 03:24:23;;;;;;;0.30;0.20;;;0.40;99.90;;;;;;5068034;28;20200;-87
2021/12/19 03:26:51;;;;;;;1.75;1.65;;;0.30;99.90;;;;;;5070344;28;20605;-87
2021/12/19 03:29:18;;;;;;;1.58;1.10;;;0.30;99.90;;;;;;5057631;28;20258;-87
2021/12/19 03:31:45;;;;;;;0.30;0.10;;;0.30;99.90;;;;;;5051699;28;20203;-86
2021/12/19 03:34:13;;;;;;;2.65;0.75;;;0.30;99.90;;;;;;5062198;28;20196;-87
2021/12/19 03:36:40;;;;;;;0.30;0.20;;;0.30;99.90;;;;;;5060163;28;20396;-89
2021/12/19 03:39:24;;;;;;;1.80;1.70;;;0.30;99.90;;;;;;5069625;28;20280;-89
2021/12/19 03:41:56;;;;;;;0.30;0.10;;;0.30;99.90;;;;;;5071863;28;20199;-86
2021/12/19 03:44:24;;;;;;;0.30;0.10;;;0.20;99.90;;;;;;5065824;28;20244;-88
2021/12/19 03:46:51;;;;;;;0.30;0.10;;;0.20;99.90;;;;;;5069162;28;20656;-87
2021/12/19 03:49:19;;;;;;;0.30;0.10;;;0.20;99.90;;;;;;5069974;28;20215;-88
2021/12/19 03:51:47;;;;;;;0.30;0.10;;;0.20;99.90;;;;;;5069363;28;20198;-88
2021/12/19 03:54:15;;;;;;;0.30;0.10;;;0.20;99.90;;;;;;5068926;28;20230;-87
2021/12/19 03:56:42;;;;;;;0.30;0.10;;;0.20;99.90;;;;;;5066536;28;20264;-87
2021/12/19 03:59:10;;;;;;;0.30;0.10;;;0.20;99.90;;;;;;5053372;28;20254;-87
2021/12/19 04:01:39;;;;;;;0.30;0.15;;;0.20;99.90;;;;;;5060926;28;20231;-86
2021/12/19 04:04:06;;;;;;;0.30;0.10;;;0.20;99.90;;;;;;5068871;28;20282;-87
2021/12/19 04:06:33;;;;;;;0.30;0.10;;;0.20;99.90;;;;;;5068067;28;20201;-87
2021/12/19 04:09:00;;;;;;;0.30;0.10;;;0.20;99.90;;;;;;5084131;28;20228;-85
2021/12/19 04:11:27;;;;;;;0.30;0.10;;;0.30;99.90;;;;;;5079171;28;20561;-87
2021/12/19 04:13:54;;;;;;;0.30;0.10;;;0.30;99.90;;;;;;5076567;28;20259;-87
2021/12/19 04:16:22;;;;;;;0.30;0.17;;;0.40;99.90;;;;;;5069577;28;20557;-86
2021/12/19 04:18:49;;;;;;;0.30;0.10;;;0.40;99.90;;;;;;5059981;28;20257;-87
2021/12/19 04:21:16;;;;;;;0.30;0.10;;;0.40;99.90;;;;;;5067463;28;20253;-87
2021/12/19 04:23:43;;;;;;;0.30;0.10;;;0.40;99.90;;;;;;5065861;28;20207;-86
2021/12/19 04:26:10;;;;;;;0.30;0.10;;;0.40;99.90;;;;;;5067905;28;20204;-87
2021/12/19 04:28:37;;;;;;;0.82;0.82;;;0.40;99.90;;;;;;5062619;28;20204;-90
2021/12/19 04:31:04;;;;;;;0.30;0.20;;;0.40;99.90;;;;;;5072860;28;20200;-88
2021/12/19 04:33:35;;;;;;;0.30;0.10;;;0.40;99.90;;;;;;5070540;28;20208;-88
2021/12/19 04:36:05;;;;;;;0.30;0.10;;;0.40;99.90;;;;;;5071497;28;20221;-87
2021/12/19 04:44:40;;;;;;;0.30;0.10;;;0.40;99.90;;;;;;5058916;28;20278;-89
2021/12/19 04:58:17;;;;;;;0.30;0.10;;;0.30;99.90;;;;;;5067836;28;20726;-87
2021/12/19 05:00:53;;;;;;;0.30;0.10;;;0.30;99.90;;;;;;5069748;28;20197;-89
2021/12/19 05:03:30;;;;;;;0.30;0.20;;;0.40;99.90;;;;;;5069348;28;20270;-88
2021/12/19 05:06:05;;;;;;;0.30;0.10;;;0.40;99.90;;;;;;5079138;28;20195;-87
2021/12/19 05:14:13;;;;;;;0.30;0.20;;;0.40;99.90;;;;;;5066893;28;20210;-89
2021/12/19 05:16:43;;;;;;;0.40;0.32;;;0.40;99.90;;;;;;5060651;28;20218;-88
2021/12/19 05:19:21;;;;;;;0.30;0.10;;;0.40;99.90;;;;;;5055480;28;20239;-90
2021/12/19 05:21:52;;;;;;;0.30;0.10;;;0.40;99.90;;;;;;5072543;28;20276;-89
2021/12/19 05:27:04;;;;;;;0.30;0.10;;;0.50;99.90;;;;;;5065930;28;20205;-88
2021/12/19 05:29:32;;;;;;;0.30;0.10;;;0.50;99.90;;;;;;5062249;28;20248;-87
2021/12/19 05:31:59;;;;;;;0.30;0.10;;;0.50;99.90;;;;;;5063427;28;20719;-89
2021/12/19 05:34:28;;;;;;;0.30;0.10;;;0.50;99.90;;;;;;5065891;28;20716;-89
2021/12/19 05:45:13;;;;;;;0.30;0.10;;;0.60;99.90;;;;;;5068299;28;20209;-89
2021/12/19 05:47:41;;;;;;;0.30;0.10;;;0.50;99.90;;;;;;5071465;28;20201;-88
2021/12/19 05:50:08;;;;;;;0.30;0.10;;;0.50;99.90;;;;;;5068841;28;20194;-87
2021/12/19 05:52:37;;;;;;;0.30;0.20;;;0.50;99.90;;;;;;5070680;28;20192;-88
2021/12/19 05:55:05;;;;;;;0.30;0.20;;;0.50;99.90;;;;;;5071757;28;20253;-90
2021/12/19 05:57:32;;;;;;;0.30;0.20;;;0.50;99.90;;;;;;5068688;28;20227;-88
2021/12/19 05:59:59;;;;;;;0.30;0.10;;;0.50;99.90;;;;;;5067998;28;20251;-89
2021/12/19 06:02:27;;;;;;;0.85;0.85;;;0.50;99.90;;;;;;5081965;28;20374;-88
2021/12/19 06:04:54;;;;;;;0.30;0.10;;;0.50;99.90;;;;;;5086890;28;20197;-87
2021/12/19 06:07:21;;;;;;;0.30;0.10;;;0.50;99.90;;;;;;5069566;28;20208;-88
2021/12/19 06:09:49;;;;;;;0.30;0.10;;;0.50;99.90;;;;;;5070516;28;20528;-88
2021/12/19 06:12:16;;;;;;;0.30;0.10;;;0.50;99.90;;;;;;5071729;28;20192;-89
2021/12/19 06:14:43;;;;;;;0.30;0.10;;;0.50;99.90;;;;;;5051423;28;20209;-87
2021/12/19 06:17:10;;;;;;;0.30;0.20;;;0.50;99.90;;;;;;5051439;28;20664;-86
2021/12/19 06:19:37;;;;;;;0.30;0.10;;;0.60;99.90;;;;;;5050704;28;20202;-89
2021/12/19 06:22:06;;;;;;;0.30;0.10;;;0.50;99.90;;;;;;5054352;28;20954;-89
2021/12/19 06:24:33;;;;;;;0.60;0.43;;;0.60;99.90;;;;;;5068784;28;20285;-88
2021/12/19 06:27:02;;;;;;;0.30;0.10;;;0.60;99.90;;;;;;5072801;28;20206;-90
2021/12/19 06:29:31;;;;;;;0.30;0.10;;;0.60;99.90;;;;;;5068819;28;20696;-88
2021/12/19 06:31:59;;;;;;;0.30;0.20;;;0.50;99.90;;;;;;5071225;28;20207;-89
2021/12/19 06:34:27;;;;;;;0.80;0.75;;;0.60;99.90;;;;;;5066320;28;20661;-88
2021/12/19 06:36:54;;;;;;;0.95;0.95;;;0.60;99.90;;;;;;5070453;28;20225;-88
2021/12/19 06:39:21;;;;;;;2.25;1.40;;;0.50;99.90;;;;;;5072131;28;20259;-87
2021/12/19 06:41:48;;;;;;;0.30;0.20;;;0.60;99.90;;;;;;5071484;28;20533;-88
2021/12/19 06:44:17;;;;;;;1.20;0.32;;;0.60;99.90;;;;;;5070363;28;20219;-88
2021/12/19 06:46:44;;;;;;;0.30;0.10;;;0.60;99.90;;;;;;5069660;28;20204;-88
2021/12/19 06:49:11;;;;;;;0.30;0.10;;;0.60;99.90;;;;;;5071019;28;20253;-88
2021/12/19 06:51:39;;;;;;;0.30;0.10;;;0.60;99.90;;;;;;5064517;28;20196;-89
2021/12/19 06:54:05;;;;;;;0.30;0.10;;;0.60;99.90;;;;;;5052340;28;20195;-87
2021/12/19 06:56:32;;;;;;;0.40;0.30;;;0.60;99.90;;;;;;5054816;28;20217;-89
2021/12/19 06:58:59;;;;;;;1.42;1.15;;;0.60;99.90;;;;;;5054927;28;20998;-89
2021/12/19 07:01:28;;;;;;;0.52;0.47;;;0.70;99.90;;;;;;5070387;28;20650;-88
2021/12/19 07:03:55;;;;;;;0.30;0.10;;;0.70;99.90;;;;;;5062471;28;20214;-88
2021/12/19 07:06:22;;;;;;;0.30;0.20;;;0.60;99.90;;;;;;5051579;28;20210;-88
2021/12/19 07:08:49;;;;;;;0.88;0.75;;;0.60;99.90;;;;;;5067881;28;20220;-90
2021/12/19 07:11:16;;;;;;;0.30;0.10;;;0.70;99.90;;;;;;5069750;28;20543;-88
2021/12/19 07:13:43;;;;;;;0.30;0.20;;;0.70;99.90;;;;;;5087018;28;20607;-88
2021/12/19 07:16:10;;;;;;;0.30;0.20;;;0.70;99.90;;;;;;5081290;28;20619;-88
2021/12/19 07:18:38;;;;;;;0.40;0.28;;;0.70;99.90;;;;;;5069606;28;20211;-90
2021/12/19 07:21:06;;;;;;;0.30;0.10;;;0.70;99.90;;;;;;5069950;28;20757;-87
2021/12/19 07:23:33;;;;;;;0.30;0.10;;;0.70;99.90;;;;;;5070655;28;20252;-90
2021/12/19 07:26:00;;;;;;;0.30;0.20;;;0.70;99.90;;;;;;5070548;28;20195;-89
2021/12/19 07:28:27;;;;;;;0.43;0.43;;;0.70;99.90;;;;;;5072755;28;20263;-88
2021/12/19 07:30:56;;;;;;;0.30;0.20;;;0.60;99.90;;;;;;5070157;28;20653;-88
2021/12/19 07:33:23;;;;;;;0.30;0.10;;;0.60;99.90;;;;;;5068936;28;20562;-88
2021/12/19 07:35:52;;;;;;;0.30;0.20;;;0.60;99.90;;;;;;5066108;28;20251;-89
2021/12/19 07:38:26;;;;;;;0.30;0.10;;;0.60;99.90;;;;;;5067730;28;20229;-88
2021/12/19 07:40:54;;;;;;;0.30;0.10;;;0.60;99.90;;;;;;5065793;28;20194;-88
2021/12/19 07:43:22;;;;;;;0.45;0.45;;;0.70;99.90;;;;;;5056385;28;20196;-90
2021/12/19 07:45:49;;;;;;;0.30;0.10;;;0.70;99.90;;;;;;5066522;28;20284;-91
2021/12/19 07:48:16;;;;;;;0.30;0.10;;;0.70;99.90;;;;;;5067926;28;20204;-88
2021/12/19 07:50:43;;;;;;;0.30;0.10;;;0.70;99.90;;;;;;5066362;28;20204;-89
2021/12/19 07:53:12;;;;;;;0.30;0.10;;;0.80;99.90;;;;;;5057899;28;20266;-88
2021/12/19 07:55:39;;;;;;;0.30;0.10;;;0.80;99.90;;;;;;5063585;28;20583;-89
2021/12/19 07:58:05;;;;;;;0.30;0.10;;;0.80;99.90;;;;;;5086323;28;20244;-88
2021/12/19 08:00:33;;;;;;;0.30;0.10;;;0.90;99.90;;;;;;5062130;28;20357;-88
2021/12/19 08:02:59;;;;;;;0.30;0.10;;;0.90;99.90;;;;;;5067921;28;20203;-89
2021/12/19 08:05:26;;;;;;;5.40;1.75;;;0.90;99.90;;;;;;5071005;28;20204;-90
2021/12/19 08:08:04;;;;;;;0.30;0.20;;;0.90;99.90;;;;;;5074026;28;20203;-89
2021/12/19 08:13:18;;;;;;;0.30;0.10;;;0.90;99.90;;;;;;5075792;28;20206;-87
2021/12/19 08:15:45;;;;;;;0.30;0.10;;;0.90;99.90;;;;;;5067643;28;20718;-87
2021/12/19 08:18:12;;;;;;;0.30;0.10;;;0.90;99.90;;;;;;5055344;28;20266;-89
2021/12/19 08:20:39;;;;;;;0.30;0.20;;;0.90;99.90;;;;;;5062886;28;20200;-88
2021/12/19 08:23:07;;;;;;;0.30;0.10;;;0.90;99.90;;;;;;5061690;28;20207;-88
2021/12/19 08:25:35;;;;;;;0.30;0.10;;;0.90;99.90;;;;;;5054918;28;20231;-87
2021/12/19 08:28:02;;;;;;;0.30;0.20;;;0.90;99.90;;;;;;5067131;28;20298;-87
2021/12/19 08:30:29;;;;;;;1.73;1.58;;;0.80;99.90;;;;;;5058257;28;20204;-87
2021/12/19 08:32:58;;;;;;;0.30;0.10;;;0.80;99.90;;;;;;5060291;28;20197;-86
2021/12/19 08:35:25;;;;;;;0.30;0.10;;;0.90;99.90;;;;;;5064073;28;20202;-87
2021/12/19 08:37:52;;;;;;;0.30;0.10;;;0.80;99.90;;;;;;5060684;28;20239;-88
2021/12/19 08:40:22;;;;;;;0.30;0.10;;;0.90;99.90;;;;;;5066217;28;20197;-87
2021/12/19 08:42:51;;;;;;;0.40;0.10;;;0.80;99.90;;;;;;5052700;28;20209;-87
2021/12/19 08:45:18;;;;;;;0.30;0.10;;;0.80;99.90;;;;;;5063254;28;20253;-88
2021/12/19 08:47:45;;;;;;;0.30;0.10;;;0.80;99.90;;;;;;5057092;28;20216;-88
2021/12/19 08:50:13;;;;;;;1.35;1.25;;;0.80;99.90;;;;;;5057985;28;20263;-87
2021/12/19 08:52:40;;;;;;;0.30;0.15;;;0.80;99.90;;;;;;5060337;28;20245;-87
2021/12/19 08:55:10;;;;;;;0.30;0.10;;;0.80;99.90;;;;;;5088200;28;20206;-87
2021/12/19 08:57:37;;;;;;;0.30;0.10;;;0.70;99.90;;;;;;5073512;28;20686;-86
2021/12/19 09:00:07;;;;;;;0.30;0.10;;;0.80;99.90;;;;;;5070806;28;20205;-89
2021/12/19 09:02:34;;;;;;;0.30;0.10;;;0.80;99.90;;;;;;5058629;28;20555;-86
2021/12/19 09:05:01;;;;;;;0.30;0.10;;;0.90;99.90;;;;;;5063179;28;20204;-87
2021/12/19 09:07:29;;;;;;;0.30;0.20;;;0.90;99.90;;;;;;5058042;28;20722;-91
2021/12/19 09:09:56;;;;;;;0.30;0.10;;;0.90;99.90;;;;;;5063569;28;20277;-89
2021/12/19 09:12:23;;;;;;;0.30;0.10;;;1.00;99.90;;;;;;5073993;28;20384;-85
2021/12/19 09:14:50;;;;;;;0.30;0.10;;;0.90;99.90;;;;;;5085802;28;20675;-87
2021/12/19 09:17:18;;;;;;;0.30;0.10;;;1.00;99.90;;;;;;5052092;28;20251;-86
2021/12/19 09:19:45;;;;;;;0.30;0.10;;;1.00;99.90;;;;;;5059705;28;20258;-87
2021/12/19 09:22:12;;;;;;;0.30;0.25;;;1.00;99.90;;;;;;5071853;28;20200;-86
2021/12/19 09:24:39;;;;;;;0.30;0.10;;;1.00;99.90;;;;;;5069351;28;20193;-86
2021/12/19 09:27:07;;;;;;;0.30;0.10;;;1.00;99.90;;;;;;5074427;28;20195;-87
2021/12/19 09:29:34;;;;;;;0.30;0.20;;;1.10;99.90;;;;;;5071210;28;20655;-86
2021/12/19 09:32:02;;;;;;;0.30;0.10;;;1.10;99.90;;;;;;5074090;28;20199;-86
2021/12/19 09:34:32;;;;;;;0.90;0.30;;;1.10;99.90;;;;;;5056825;28;20219;-87
2021/12/19 09:36:59;;;;;;;0.30;0.10;;;1.20;99.90;;;;;;5066803;28;20222;-87
2021/12/19 09:39:28;;;;;;;0.30;0.10;;;1.20;99.90;;;;;;5060619;28;20800;-86
2021/12/19 09:41:59;;;;;;;0.30;0.10;;;1.20;99.90;;;;;;5052736;28;20586;-86
2021/12/19 09:44:26;;;;;;;0.30;0.10;;;1.20;99.90;;;;;;5063677;28;20205;-87
2021/12/19 09:46:53;;;;;;;0.30;0.10;;;1.30;99.90;;;;;;5072331;28;20209;-87
2021/12/19 09:49:22;;;;;;;0.30;0.10;;;1.30;99.90;;;;;;5066782;28;20792;-87
2021/12/19 09:51:52;;;;;;;0.30;0.10;;;1.40;99.90;;;;;;5095217;28;20204;-88
2021/12/19 09:54:20;;;;;;;0.30;0.10;;;1.40;99.90;;;;;;5084058;28;20256;-87
2021/12/19 09:56:49;;;;;;;0.30;0.10;;;1.30;99.90;;;;;;5066036;28;20233;-86
2021/12/19 09:59:18;;;;;;;0.30;0.10;;;1.40;99.90;;;;;;5092657;28;20202;-87
2021/12/19 10:01:45;;;;;;;1.98;0.20;;;1.40;99.90;;;;;;5089540;28;20657;-90
2021/12/19 10:04:34;;;;;;;0.30;0.10;;;1.40;99.90;;;;;;5071455;28;20203;-86
2021/12/19 10:07:10;;;;;;;0.30;0.10;;;1.40;99.90;;;;;;5071546;28;20643;-87
2021/12/19 10:09:42;;;;;;;0.30;0.20;;;1.50;99.90;;;;;;5071160;28;20353;-88
2021/12/19 10:12:37;;;;;;;0.40;0.35;;;1.50;99.90;;;;;;5075740;28;20207;-87
2021/12/19 10:15:06;;;;;;;0.30;0.10;;;1.50;99.90;;;;;;5088964;28;20884;-87
2021/12/19 10:17:33;;;;;;;0.30;0.30;;;1.50;99.90;;;;;;5067921;28;20223;-88
2021/12/19 10:20:02;;;;;;;0.30;0.10;;;1.40;99.90;;;;;;5069326;28;20201;-88
2021/12/19 10:22:33;;;;;;;0.30;0.10;;;1.40;99.90;;;;;;5067681;28;20209;-89
2021/12/19 10:25:17;;;;;;;0.30;0.10;;;1.40;99.90;;;;;;5057539;28;20609;-89
2021/12/19 10:27:45;;;;;;;0.30;0.20;;;1.40;99.90;;;;;;5064515;28;20740;-88
2021/12/19 10:30:19;;;;;;;0.30;0.10;;;1.40;99.90;;;;;;5054997;28;20242;-87
2021/12/19 10:32:54;;;;;;;0.30;0.10;;;1.40;99.90;;;;;;5063731;28;20199;-87
2021/12/19 10:35:24;;;;;;;1.38;1.27;;;1.50;99.90;;;;;;5067834;28;20277;-87
2021/12/19 10:37:53;;;;;;;0.40;0.30;;;1.50;99.90;;;;;;5067050;28;20235;-87
2021/12/19 10:40:20;;;;;;;0.30;0.10;;;1.40;99.90;;;;;;5065310;28;20205;-87
2021/12/19 10:42:59;;;;;;;0.30;0.10;;;1.30;99.90;;;;;;5065631;28;20264;-86
2021/12/19 10:45:31;;;;;;;0.40;0.30;;;1.30;99.90;;;;;;5068748;28;20196;-87
2021/12/19 10:48:32;;;;;;;0.30;0.10;;;1.30;99.90;;;;;;5077976;28;20247;-87
2021/12/19 10:51:03;;;;;;;0.30;0.10;;;1.40;99.90;;;;;;5073244;28;20228;-86
2021/12/19 10:53:36;;;;;;;0.30;0.10;;;1.30;99.90;;;;;;5068282;28;20196;-89
2021/12/19 10:56:08;;;;;;;0.30;0.10;;;1.20;99.90;;;;;;5065755;28;20261;-87
2021/12/19 10:58:43;;;;;;;0.40;0.30;;;1.10;99.90;;;;;;5054252;28;20279;-87
2021/12/19 11:01:25;;;;;;;0.30;0.10;;;1.10;99.90;;;;;;5065983;28;20639;-87
2021/12/19 11:03:57;;;;;;;0.68;0.68;;;1.10;99.90;;;;;;5064972;28;20655;-87
2021/12/19 11:06:35;;;;;;;0.30;0.10;;;1.00;99.90;;;;;;5064686;28;20205;-87
2021/12/19 11:09:07;;;;;;;0.30;0.10;;;1.10;99.90;;;;;;5066421;28;20263;-87
2021/12/19 11:11:51;;;;;;;0.30;0.10;;;1.10;99.90;;;;;;5069121;28;20212;-89
2021/12/19 11:14:21;;;;;;;0.95;0.65;;;1.10;99.90;;;;;;5058582;28;20192;-90
2021/12/19 11:16:49;;;;;;;0.30;0.10;;;1.10;99.90;;;;;;5066599;28;20212;-87
2021/12/19 11:19:16;;;;;;;0.30;0.10;;;1.10;99.90;;;;;;5070197;28;20250;-87
2021/12/19 11:21:44;;;;;;;0.30;0.20;;;1.00;99.90;;;;;;5063877;28;20638;-93
2021/12/19 11:24:16;;;;;;;0.40;0.30;;;1.00;99.90;;;;;;5056525;28;20204;-89
2021/12/19 11:26:46;;;;;;;0.30;0.10;;;1.00;99.90;;;;;;5060901;28;20264;-90
2021/12/19 11:29:14;;;;;;;0.30;0.10;;;1.00;99.90;;;;;;5065019;28;20199;-88
2021/12/19 11:31:46;;;;;;;0.30;0.10;;;1.10;99.90;;;;;;5063158;28;20199;-88
2021/12/19 11:34:19;;;;;;;0.30;0.10;;;1.10;99.90;;;;;;5066815;28;20193;-91
2021/12/19 11:36:50;;;;;;;0.30;0.10;;;1.00;99.90;;;;;;5062596;28;20728;-88
2021/12/19 11:39:19;;;;;;;0.30;0.10;;;1.10;99.90;;;;;;5066733;28;20225;-88
2021/12/19 11:42:07;;;;;;;0.30;0.10;;;1.00;99.90;;;;;;5065859;28;20293;-87
2021/12/19 11:44:38;;;;;;;1.20;1.20;;;0.90;99.90;;;;;;5078639;28;20217;-88
2021/12/19 11:47:11;;;;;;;0.82;0.82;;;0.90;99.90;;;;;;5077170;28;20210;-88
2021/12/19 11:49:41;;;;;;;0.30;0.10;;;0.90;99.90;;;;;;5066272;28;20216;-87
2021/12/19 11:52:31;;;;;;;1.67;0.43;;;0.90;99.90;;;;;;5068575;28;20207;-86
2021/12/19 11:55:25;;;;;;;0.30;0.10;;;0.90;99.90;;;;;;5058151;28;20206;-87
2021/12/19 11:58:18;;;;;;;0.30;0.10;;;0.90;99.90;;;;;;5061664;28;20583;-87
2021/12/19 12:00:50;;;;;;;0.30;0.10;;;1.00;99.90;;;;;;5059818;28;20276;-88
2021/12/19 12:03:26;;;;;;;0.30;0.10;;;1.00;99.90;;;;;;5069932;28;20209;-88
2021/12/19 12:06:14;;;;;;;0.30;0.10;;;1.10;99.90;;;;;;5064413;28;21101;-88
2021/12/19 12:09:07;;;;;;;0.30;0.10;;;1.10;99.90;;;;;;5063700;28;20221;-87
2021/12/19 12:11:36;;;;;;;0.30;0.10;;;1.10;99.90;;;;;;5050398;28;20202;-89
2021/12/19 12:14:22;;;;;;;0.30;0.10;;;1.20;99.90;;;;;;5069325;28;20227;-90
2021/12/19 12:16:53;;;;;;;0.30;0.20;;;1.30;99.90;;;;;;5055450;28;20254;-88
2021/12/19 12:19:37;;;;;;;3.90;0.73;;;1.30;99.90;;;;;;5075340;28;20221;-89
2021/12/19 12:22:34;;;;;;;0.30;0.20;;;1.20;99.90;;;;;;5089875;28;20235;-88
2021/12/19 12:25:14;;;;;;;0.30;0.15;;;1.10;99.90;;;;;;5067731;28;20201;-89
2021/12/19 12:27:43;;;;;;;0.30;0.10;;;1.20;99.90;;;;;;5065215;28;20286;-87
2021/12/19 12:30:14;;;;;;;0.30;0.10;;;1.20;99.90;;;;;;5061218;28;20209;-88
2021/12/19 12:32:41;;;;;;;0.30;0.20;;;1.10;99.90;;;;;;5068392;28;20599;-87
2021/12/19 12:35:11;;;;;;;0.30;0.20;;;1.10;99.90;;;;;;5060861;28;20730;-88
2021/12/19 12:37:39;;;;;;;0.30;0.10;;;1.10;99.90;;;;;;5063847;28;20287;-88
2021/12/19 12:40:21;;;;;;;0.30;0.10;;;1.10;99.90;;;;;;5050664;28;20681;-91
2021/12/19 12:43:08;;;;;;;0.30;0.10;;;1.10;99.90;;;;;;5089071;28;20203;-88
2021/12/19 12:45:53;;;;;;;0.30;0.10;;;1.10;99.90;;;;;;5071749;28;20196;-88
2021/12/19 12:48:30;;;;;;;0.30;0.20;;;1.00;99.90;;;;;;5061691;28;20226;-88
2021/12/19 12:50:59;;;;;;;0.30;0.10;;;1.00;99.90;;;;;;5065325;28;20199;-88
2021/12/19 12:53:31;;;;;;;0.30;0.10;;;1.00;99.90;;;;;;5070926;28;20227;-88
2021/12/19 12:56:08;;;;;;;0.30;0.10;;;1.10;99.90;;;;;;5072501;28;20196;-87
2021/12/19 12:58:37;;;;;;;0.30;0.10;;;1.00;99.90;;;;;;5064725;28;20219;-88
2021/12/19 13:01:35;;;;;;;0.30;0.10;;;1.00;99.90;;;;;;5072122;28;20258;-89
2021/12/19 13:04:12;;;;;;;0.30;0.10;;;1.10;99.90;;;;;;5069433;28;20213;-90
2021/12/19 13:06:48;;;;;;;1.05;0.85;;;1.10;99.90;;;;;;5068043;28;20195;-89
2021/12/19 13:09:22;;;;;;;0.30;0.10;;;1.10;99.90;;;;;;5072788;28;20203;-88
2021/12/19 13:11:52;;;;;;;0.30;0.10;;;1.10;99.90;;;;;;5069298;28;20201;-90
2021/12/19 13:14:23;;;;;;;0.30;0.20;;;1.10;99.90;;;;;;5069010;28;20198;-88
2021/12/19 13:16:53;;;;;;;0.75;0.73;;;1.10;99.90;;;;;;5072935;28;20263;-88
2021/12/19 13:19:42;;;;;;;0.30;0.20;;;1.00;99.90;;;;;;5077689;28;20246;-88
2021/12/19 13:22:10;;;;;;;0.30;0.10;;;1.00;99.90;;;;;;5072687;28;20285;-88
2021/12/19 13:24:39;;;;;;;0.30;0.10;;;1.00;99.90;;;;;;5072032;28;20201;-89
2021/12/19 13:27:10;;;;;;;0.30;0.20;;;1.00;99.90;;;;;;5072343;28;20207;-88
2021/12/19 13:29:38;;;;;;;0.30;0.10;;;1.00;99.90;;;;;;5089245;28;20601;-88
2021/12/19 13:32:24;;;;;;;0.30;0.10;;;1.00;99.90;;;;;;5092689;28;20194;-88
2021/12/19 13:34:52;;;;;;;0.30;0.20;;;1.10;99.90;;;;;;5071639;28;20203;-91
2021/12/19 13:37:19;;;;;;;0.30;0.10;;;1.10;99.90;;;;;;5077385;28;20254;-88
2021/12/19 13:40:09;;;;;;;0.30;0.10;;;1.10;99.90;;;;;;5095003;28;20255;-88
2021/12/19 13:42:51;;;;;;;0.30;0.10;;;1.10;99.90;;;;;;5083379;28;20260;-88
2021/12/19 13:45:42;;;;;;;0.30;0.20;;;1.10;99.90;;;;;;5073152;28;20248;-88
2021/12/19 13:48:13;;;;;;;0.30;0.10;;;1.10;99.90;;;;;;5065727;28;20200;-89
2021/12/19 13:50:44;;;;;;;0.30;0.10;;;1.10;99.90;;;;;;5072950;28;20205;-88
2021/12/19 13:53:13;;;;;;;0.30;0.10;;;1.10;99.90;;;;;;5071608;28;20204;-88
2021/12/19 13:55:50;;;;;;;0.30;0.10;;;1.10;99.90;;;;;;5072329;28;20199;-91
2021/12/19 13:58:19;;;;;;;0.30;0.10;;;1.20;99.90;;;;;;5074020;28;20222;-90
2021/12/19 14:00:51;;;;;;;0.30;0.10;;;1.10;99.90;;;;;;5081705;28;20199;-91
2021/12/19 14:03:37;;;;;;;0.30;0.10;;;1.00;99.90;;;;;;5077870;28;20204;-88
2021/12/19 14:06:04;;;;;;;0.30;0.10;;;1.00;99.90;;;;;;5091040;28;20236;-89
2021/12/19 14:08:34;;;;;;;0.30;0.20;;;1.00;99.90;;;;;;5066812;28;20669;-88
2021/12/19 14:11:17;;;;;;;0.30;0.10;;;1.10;99.90;;;;;;5072111;28;20319;-88